createdAt,value
2017-10-02T00:00:20.689Z,0
2017-10-02T00:01:30.947Z,0
2017-10-02T00:02:41.186Z,0
2017-10-02T00:03:51.470Z,0
2017-10-02T00:05:01.404Z,0
2017-10-02T00:06:11.911Z,0
2017-10-02T00:07:21.850Z,0
2017-10-02T00:08:32.108Z,0
2017-10-02T00:09:42.375Z,0
2017-10-02T00:10:52.615Z,0
2017-10-02T00:12:02.480Z,0
2017-10-02T00:13:12.421Z,0
2017-10-02T00:14:22.654Z,0
2017-10-02T00:15:32.897Z,0
2017-10-02T00:16:43.142Z,0
2017-10-02T00:17:53.648Z,0
2017-10-02T00:19:03.897Z,0
2017-10-02T00:20:13.836Z,0
2017-10-02T00:21:24.086Z,0
2017-10-02T00:22:34.050Z,0
2017-10-02T00:23:44.555Z,0
2017-10-02T00:24:54.799Z,0
2017-10-02T00:26:05.071Z,0
2017-10-02T00:27:15.319Z,0
2017-10-02T00:28:25.574Z,0
2017-10-02T00:29:35.761Z,0
2017-10-02T00:30:45.701Z,0
2017-10-02T00:31:55.952Z,0
2017-10-02T00:33:05.885Z,0
2017-10-02T00:34:15.810Z,0
2017-10-02T00:35:26.306Z,0
2017-10-02T00:36:35.922Z,0
2017-10-02T00:37:45.857Z,0
2017-10-02T00:38:56.095Z,0
2017-10-02T00:40:06.348Z,0
2017-10-02T00:41:16.839Z,0
2017-10-02T00:42:27.102Z,0
2017-10-02T00:43:37.356Z,0
2017-10-02T00:44:47.285Z,0
2017-10-02T00:45:57.213Z,0
2017-10-02T00:47:07.718Z,0
2017-10-02T00:48:17.974Z,0
2017-10-02T00:49:27.903Z,0
2017-10-02T00:50:38.159Z,0
2017-10-02T00:51:48.094Z,0
2017-10-02T00:52:58.586Z,0
2017-10-02T00:54:08.517Z,0
2017-10-02T00:55:18.443Z,0
2017-10-02T00:56:28.379Z,0
2017-10-02T00:57:38.625Z,0
2017-10-02T00:58:48.813Z,0
2017-10-02T00:59:59.051Z,0
2017-10-02T01:01:09.299Z,0
2017-10-02T01:02:19.545Z,0
2017-10-02T01:03:29.479Z,0
2017-10-02T01:04:39.972Z,0
2017-10-02T01:05:49.915Z,0
2017-10-02T01:06:59.842Z,0
2017-10-02T01:08:09.777Z,0
2017-10-02T01:09:20.027Z,0
2017-10-02T01:10:30.531Z,0
2017-10-02T01:11:40.773Z,0
2017-10-02T01:12:50.708Z,0
2017-10-02T01:14:00.633Z,0
2017-10-02T01:15:10.574Z,0
2017-10-02T01:16:21.078Z,0
2017-10-02T01:17:31.040Z,0
2017-10-02T01:18:40.971Z,0
2017-10-02T01:19:51.212Z,0
2017-10-02T01:21:01.456Z,0
2017-10-02T01:22:11.950Z,0
2017-10-02T01:23:21.883Z,0
2017-10-02T01:24:32.142Z,0
2017-10-02T01:25:42.387Z,0
2017-10-02T01:26:52.631Z,0
2017-10-02T01:28:03.148Z,0
2017-10-02T01:29:13.395Z,0
2017-10-02T01:30:23.641Z,0
2017-10-02T01:31:33.892Z,0
2017-10-02T01:32:43.818Z,0
2017-10-02T01:33:54.310Z,0
2017-10-02T01:35:04.568Z,0
2017-10-02T01:36:14.826Z,0
2017-10-02T01:37:24.753Z,0
2017-10-02T01:38:35.001Z,0
2017-10-02T01:39:45.178Z,0
2017-10-02T01:40:55.425Z,0
2017-10-02T01:42:05.669Z,0
2017-10-02T01:43:15.909Z,0
2017-10-02T01:44:25.844Z,0
2017-10-02T01:45:35.713Z,0
2017-10-02T01:46:45.981Z,0
2017-10-02T01:47:56.245Z,0
2017-10-02T01:49:06.489Z,0
2017-10-02T01:50:16.107Z,0
2017-10-02T01:51:26.608Z,0
2017-10-02T01:52:36.876Z,0
2017-10-02T01:53:47.123Z,0
2017-10-02T01:54:57.379Z,0
2017-10-02T01:56:07.313Z,0
2017-10-02T01:57:16.863Z,0
2017-10-02T01:58:27.107Z,0
2017-10-02T01:59:37.351Z,0
2017-10-02T02:00:47.594Z,0
2017-10-02T02:01:57.843Z,0
2017-10-02T02:03:07.708Z,0
2017-10-02T02:04:17.646Z,0
2017-10-02T02:05:27.729Z,0
2017-10-02T02:06:37.973Z,0
2017-10-02T02:07:46.962Z,0
2017-10-02T02:08:57.457Z,0
2017-10-02T02:10:07.087Z,0
2017-10-02T02:11:17.022Z,0
2017-10-02T02:12:26.947Z,0
2017-10-02T02:13:36.883Z,0
2017-10-02T02:14:47.374Z,0
2017-10-02T02:15:57.296Z,0
2017-10-02T02:17:07.547Z,0
2017-10-02T02:18:17.797Z,0
2017-10-02T02:19:27.724Z,0
2017-10-02T02:20:37.904Z,0
2017-10-02T02:21:47.825Z,0
2017-10-02T02:22:58.081Z,0
2017-10-02T02:24:08.027Z,0
2017-10-02T02:25:18.272Z,0
2017-10-02T02:26:28.452Z,0
2017-10-02T02:27:38.699Z,0
2017-10-02T02:28:48.635Z,0
2017-10-02T02:29:57.939Z,0
2017-10-02T02:31:08.187Z,0
2017-10-02T02:32:18.365Z,0
2017-10-02T02:33:27.993Z,0
2017-10-02T02:34:38.236Z,0
2017-10-02T02:35:47.861Z,0
2017-10-02T02:36:58.123Z,0
2017-10-02T02:38:08.618Z,0
2017-10-02T02:39:18.546Z,0
2017-10-02T02:40:28.480Z,0
2017-10-02T02:41:38.417Z,0
2017-10-02T02:42:48.357Z,0
2017-10-02T02:43:58.848Z,0
2017-10-02T02:45:08.784Z,0
2017-10-02T02:46:19.030Z,0
2017-10-02T02:47:28.958Z,0
2017-10-02T02:48:39.212Z,0
2017-10-02T02:49:49.397Z,0
2017-10-02T02:50:59.640Z,0
2017-10-02T02:52:09.887Z,0
2017-10-02T02:53:19.821Z,0
2017-10-02T02:54:29.748Z,0
2017-10-02T02:55:39.937Z,0
2017-10-02T02:56:49.877Z,0
2017-10-02T02:57:59.802Z,0
2017-10-02T02:59:10.079Z,0
2017-10-02T03:00:20.008Z,0
2017-10-02T03:01:30.193Z,0
2017-10-02T03:02:40.433Z,0
2017-10-02T03:03:50.058Z,0
2017-10-02T03:05:00.307Z,0
2017-10-02T03:06:10.550Z,0
2017-10-02T03:07:20.734Z,0
2017-10-02T03:08:30.982Z,0
2017-10-02T03:09:41.166Z,0
2017-10-02T03:10:51.101Z,0
2017-10-02T03:12:01.348Z,0
2017-10-02T03:13:11.846Z,0
2017-10-02T03:14:22.089Z,0
2017-10-02T03:15:31.714Z,0
2017-10-02T03:16:41.658Z,0
2017-10-02T03:17:51.914Z,0
2017-10-02T03:19:02.088Z,0
2017-10-02T03:20:12.341Z,0
2017-10-02T03:21:22.270Z,0
2017-10-02T03:22:32.915Z,0
2017-10-02T03:23:42.844Z,0
2017-10-02T03:24:53.025Z,0
2017-10-02T03:26:02.640Z,0
2017-10-02T03:27:12.886Z,0
2017-10-02T03:28:23.137Z,0
2017-10-02T03:29:33.383Z,0
2017-10-02T03:30:43.571Z,0
2017-10-02T03:31:53.814Z,0
2017-10-02T03:33:03.754Z,0
2017-10-02T03:34:13.688Z,0
2017-10-02T03:35:23.938Z,0
2017-10-02T03:36:34.437Z,0
2017-10-02T03:37:44.698Z,0
2017-10-02T03:38:54.959Z,0
2017-10-02T03:40:05.201Z,0
2017-10-02T03:41:15.132Z,0
2017-10-02T03:42:25.626Z,0
2017-10-02T03:43:35.873Z,0
2017-10-02T03:44:45.803Z,0
2017-10-02T03:45:56.053Z,0
2017-10-02T03:47:06.289Z,0
2017-10-02T03:48:16.466Z,0
2017-10-02T03:49:26.711Z,0
2017-10-02T03:50:36.641Z,0
2017-10-02T03:51:46.897Z,0
2017-10-02T03:52:56.509Z,0
2017-10-02T03:54:07.009Z,0
2017-10-02T03:55:16.941Z,0
2017-10-02T03:56:27.194Z,0
2017-10-02T03:57:37.447Z,0
2017-10-02T03:58:47.693Z,0
2017-10-02T03:59:57.877Z,0
2017-10-02T04:01:08.144Z,0
2017-10-02T04:02:18.421Z,0
2017-10-02T04:03:28.665Z,0
2017-10-02T04:04:38.910Z,0
2017-10-02T04:05:49.089Z,0
2017-10-02T04:06:59.330Z,0
2017-10-02T04:08:09.252Z,0
2017-10-02T04:09:19.182Z,0
2017-10-02T04:10:29.116Z,0
2017-10-02T04:11:39.610Z,0
2017-10-02T04:12:49.866Z,0
2017-10-02T04:14:00.115Z,0
2017-10-02T04:15:10.364Z,0
2017-10-02T04:16:20.621Z,0
2017-10-02T04:17:31.125Z,0
2017-10-02T04:18:41.382Z,0
2017-10-02T04:19:51.621Z,0
2017-10-02T04:21:01.878Z,0
2017-10-02T04:22:11.817Z,0
2017-10-02T04:23:21.996Z,0
2017-10-02T04:24:32.255Z,0
2017-10-02T04:25:42.179Z,0
2017-10-02T04:26:52.104Z,0
2017-10-02T04:28:02.343Z,0
2017-10-02T04:29:12.535Z,0
2017-10-02T04:30:22.148Z,0
2017-10-02T04:31:31.759Z,0
2017-10-02T04:32:41.688Z,0
2017-10-02T04:33:51.927Z,0
2017-10-02T04:35:02.103Z,0
2017-10-02T04:36:12.354Z,0
2017-10-02T04:37:22.618Z,0
2017-10-02T04:38:32.240Z,0
2017-10-02T04:39:42.491Z,0
2017-10-02T04:40:52.984Z,0
2017-10-02T04:42:03.241Z,0
2017-10-02T04:43:13.178Z,0
2017-10-02T04:44:23.109Z,0
2017-10-02T04:45:33.349Z,0
2017-10-02T04:46:43.216Z,0
2017-10-02T04:47:53.465Z,0
2017-10-02T04:49:03.708Z,0
2017-10-02T04:50:13.953Z,0
2017-10-02T04:51:24.194Z,0
2017-10-02T04:52:34.377Z,0
2017-10-02T04:53:43.998Z,0
2017-10-02T04:54:54.239Z,0
2017-10-02T04:56:04.180Z,5
2017-10-02T04:57:14.123Z,5
2017-10-02T04:58:24.627Z,5
2017-10-02T04:59:34.566Z,5
2017-10-02T05:00:44.819Z,10
2017-10-02T05:01:54.760Z,10
2017-10-02T05:03:05.009Z,10
2017-10-02T05:04:15.216Z,10
2017-10-02T05:05:25.456Z,10
2017-10-02T05:06:35.395Z,15
2017-10-02T05:07:45.324Z,15
2017-10-02T05:08:55.571Z,15
2017-10-02T05:10:06.064Z,15
2017-10-02T05:11:16.000Z,15
2017-10-02T05:12:26.245Z,20
2017-10-02T05:13:36.178Z,20
2017-10-02T05:14:45.804Z,20
2017-10-02T05:15:56.294Z,25
2017-10-02T05:17:06.224Z,25
2017-10-02T05:18:16.472Z,30
2017-10-02T05:19:26.719Z,30
2017-10-02T05:20:36.660Z,35
2017-10-02T05:21:47.158Z,35
2017-10-02T05:22:57.076Z,40
2017-10-02T05:24:07.008Z,45
2017-10-02T05:25:16.935Z,45
2017-10-02T05:26:27.184Z,50
2017-10-02T05:27:37.677Z,55
2017-10-02T05:28:47.914Z,55
2017-10-02T05:29:57.838Z,55
2017-10-02T05:31:08.080Z,60
2017-10-02T05:32:18.335Z,65
2017-10-02T05:33:28.836Z,65
2017-10-02T05:34:39.088Z,70
2017-10-02T05:35:49.332Z,75
2017-10-02T05:36:59.583Z,75
2017-10-02T05:38:09.836Z,80
2017-10-02T05:39:20.333Z,85
2017-10-02T05:40:30.581Z,85
2017-10-02T05:41:40.815Z,90
2017-10-02T05:42:51.055Z,90
2017-10-02T05:44:00.984Z,95
2017-10-02T05:45:11.175Z,95
2017-10-02T05:46:21.414Z,95
2017-10-02T05:47:31.673Z,100
2017-10-02T05:48:41.918Z,100
2017-10-02T05:49:51.845Z,100
2017-10-02T05:51:02.347Z,100
2017-10-02T05:52:12.620Z,100
2017-10-02T05:53:22.865Z,100
2017-10-02T05:54:32.797Z,100
2017-10-02T05:55:43.045Z,100
2017-10-02T05:56:53.533Z,100
2017-10-02T05:58:03.792Z,105
2017-10-02T05:59:13.410Z,105
2017-10-02T06:00:23.661Z,105
2017-10-02T06:01:33.904Z,110
2017-10-02T06:02:44.083Z,110
2017-10-02T06:03:54.328Z,115
2017-10-02T06:05:04.578Z,115
2017-10-02T06:06:14.510Z,115
2017-10-02T06:07:24.786Z,120
2017-10-02T06:08:35.285Z,125
2017-10-02T06:09:45.526Z,130
2017-10-02T06:10:55.454Z,130
2017-10-02T06:12:05.694Z,130
2017-10-02T06:13:15.951Z,135
2017-10-02T06:14:26.139Z,140
2017-10-02T06:15:36.387Z,140
2017-10-02T06:16:46.314Z,145
2017-10-02T06:17:56.556Z,150
2017-10-02T06:19:06.827Z,155
2017-10-02T06:20:17.341Z,160
2017-10-02T06:21:27.598Z,165
2017-10-02T06:22:37.539Z,170
2017-10-02T06:23:47.795Z,175
2017-10-02T06:24:58.038Z,180
2017-10-02T06:26:08.226Z,185
2017-10-02T06:27:18.162Z,190
2017-10-02T06:28:28.417Z,195
2017-10-02T06:29:38.351Z,195
2017-10-02T06:30:48.614Z,200
2017-10-02T06:31:58.484Z,205
2017-10-02T06:33:08.739Z,210
2017-10-02T06:34:18.993Z,215
2017-10-02T06:35:29.245Z,215
2017-10-02T06:36:39.482Z,220
2017-10-02T06:37:49.971Z,230
2017-10-02T06:39:00.217Z,230
2017-10-02T06:40:10.471Z,230
2017-10-02T06:41:20.723Z,235
2017-10-02T06:42:30.981Z,235
2017-10-02T06:43:41.181Z,240
2017-10-02T06:44:51.423Z,245
2017-10-02T06:46:01.353Z,245
2017-10-02T06:47:11.700Z,250
2017-10-02T06:48:21.636Z,255
2017-10-02T06:49:32.142Z,255
2017-10-02T06:50:42.389Z,255
2017-10-02T06:51:52.014Z,260
2017-10-02T06:53:02.268Z,270
2017-10-02T06:54:12.193Z,275
2017-10-02T06:55:22.378Z,280
2017-10-02T06:56:31.683Z,290
2017-10-02T06:57:41.943Z,300
2017-10-02T06:58:52.641Z,305
2017-10-02T07:00:02.890Z,315
2017-10-02T07:01:13.398Z,320
2017-10-02T07:02:23.348Z,325
2017-10-02T07:03:33.592Z,330
2017-10-02T07:04:43.837Z,335
2017-10-02T07:05:53.769Z,340
2017-10-02T07:07:04.269Z,345
2017-10-02T07:08:14.209Z,350
2017-10-02T07:09:24.471Z,355
2017-10-02T07:10:34.725Z,360
2017-10-02T07:11:44.974Z,365
2017-10-02T07:12:55.523Z,365
2017-10-02T07:14:05.773Z,370
2017-10-02T07:15:16.253Z,370
2017-10-02T07:16:26.507Z,370
2017-10-02T07:17:36.752Z,370
2017-10-02T07:18:47.245Z,375
2017-10-02T07:19:57.487Z,370
2017-10-02T07:21:07.435Z,375
2017-10-02T07:22:17.370Z,375
2017-10-02T07:23:27.306Z,380
2017-10-02T07:24:37.812Z,380
2017-10-02T07:25:48.060Z,385
2017-10-02T07:26:58.022Z,385
2017-10-02T07:28:07.951Z,390
2017-10-02T07:29:17.575Z,390
2017-10-02T07:30:27.751Z,395
2017-10-02T07:31:37.692Z,395
2017-10-02T07:32:47.931Z,400
2017-10-02T07:33:58.186Z,405
2017-10-02T07:35:08.495Z,400
2017-10-02T07:36:18.983Z,405
2017-10-02T07:37:28.925Z,405
2017-10-02T07:38:38.862Z,405
2017-10-02T07:39:49.113Z,405
2017-10-02T07:40:59.361Z,405
2017-10-02T07:42:09.868Z,400
2017-10-02T07:43:20.116Z,400
2017-10-02T07:44:30.369Z,405
2017-10-02T07:45:40.301Z,395
2017-10-02T07:46:50.235Z,395
2017-10-02T07:48:00.426Z,410
2017-10-02T07:49:10.358Z,400
2017-10-02T07:50:20.299Z,405
2017-10-02T07:51:30.543Z,405
2017-10-02T07:52:40.500Z,410
2017-10-02T07:53:50.692Z,420
2017-10-02T07:55:00.637Z,420
2017-10-02T07:56:10.585Z,425
2017-10-02T07:57:20.517Z,435
2017-10-02T07:58:30.772Z,440
2017-10-02T07:59:41.280Z,455
2017-10-02T08:00:51.210Z,460
2017-10-02T08:02:01.154Z,470
2017-10-02T08:03:11.415Z,475
2017-10-02T08:04:21.666Z,490
2017-10-02T08:05:32.171Z,505
2017-10-02T08:06:42.112Z,520
2017-10-02T08:07:52.373Z,535
2017-10-02T08:09:02.621Z,545
2017-10-02T08:10:12.890Z,560
2017-10-02T08:11:23.384Z,580
2017-10-02T08:12:33.351Z,580
2017-10-02T08:13:43.293Z,585
2017-10-02T08:14:53.545Z,590
2017-10-02T08:16:03.835Z,600
2017-10-02T08:17:14.345Z,615
2017-10-02T08:18:24.607Z,615
2017-10-02T08:19:34.861Z,630
2017-10-02T08:20:44.480Z,660
2017-10-02T08:21:54.136Z,660
2017-10-02T08:23:04.642Z,650
2017-10-02T08:24:14.899Z,645
2017-10-02T08:25:24.841Z,635
2017-10-02T08:26:35.094Z,630
2017-10-02T08:27:45.337Z,605
2017-10-02T08:28:55.531Z,590
2017-10-02T08:30:05.501Z,580
2017-10-02T08:31:15.753Z,580
2017-10-02T08:32:26.009Z,595
2017-10-02T08:33:36.260Z,600
2017-10-02T08:34:46.452Z,600
2017-10-02T08:35:56.700Z,575
2017-10-02T08:37:06.951Z,575
2017-10-02T08:38:17.264Z,580
2017-10-02T08:39:27.516Z,575
2017-10-02T08:40:38.017Z,585
2017-10-02T08:41:47.954Z,605
2017-10-02T08:42:58.203Z,640
2017-10-02T08:44:08.456Z,700
2017-10-02T08:45:18.393Z,730
2017-10-02T08:46:28.571Z,770
2017-10-02T08:47:38.816Z,775
2017-10-02T08:48:49.069Z,755
2017-10-02T08:49:59.332Z,780
2017-10-02T08:51:09.583Z,990
2017-10-02T08:52:19.790Z,1000
2017-10-02T08:53:30.042Z,1030
2017-10-02T08:54:40.000Z,1070
2017-10-02T08:55:49.943Z,970
2017-10-02T08:57:00.216Z,1020
2017-10-02T08:58:10.449Z,960
2017-10-02T08:59:20.711Z,900
2017-10-02T09:00:30.956Z,875
2017-10-02T09:01:40.578Z,860
2017-10-02T09:02:50.833Z,800
2017-10-02T09:04:01.016Z,745
2017-10-02T09:05:10.962Z,705
2017-10-02T09:06:21.260Z,655
2017-10-02T09:07:31.515Z,630
2017-10-02T09:08:41.148Z,605
2017-10-02T09:09:51.349Z,575
2017-10-02T09:11:01.604Z,555
2017-10-02T09:12:11.870Z,545
2017-10-02T09:13:21.826Z,525
2017-10-02T09:14:32.073Z,510
2017-10-02T09:15:42.573Z,505
2017-10-02T09:16:52.826Z,505
2017-10-02T09:18:03.095Z,495
2017-10-02T09:19:13.037Z,490
2017-10-02T09:20:22.986Z,485
2017-10-02T09:21:33.491Z,480
2017-10-02T09:22:43.436Z,475
2017-10-02T09:23:53.393Z,475
2017-10-02T09:25:03.350Z,480
2017-10-02T09:26:13.304Z,485
2017-10-02T09:27:23.804Z,500
2017-10-02T09:28:34.048Z,520
2017-10-02T09:29:44.317Z,540
2017-10-02T09:30:54.558Z,555
2017-10-02T09:32:04.494Z,570
2017-10-02T09:33:14.690Z,590
2017-10-02T09:34:24.947Z,610
2017-10-02T09:35:34.887Z,635
2017-10-02T09:36:44.825Z,640
2017-10-02T09:37:55.088Z,650
2017-10-02T09:39:05.602Z,660
2017-10-02T09:40:15.566Z,680
2017-10-02T09:41:25.806Z,685
2017-10-02T09:42:35.749Z,690
2017-10-02T09:43:45.685Z,700
2017-10-02T09:44:56.189Z,705
2017-10-02T09:46:06.134Z,715
2017-10-02T09:47:16.385Z,720
2017-10-02T09:48:26.636Z,720
2017-10-02T09:49:36.882Z,720
2017-10-02T09:50:47.075Z,715
2017-10-02T09:51:57.322Z,715
2017-10-02T09:53:07.596Z,715
2017-10-02T09:54:17.858Z,720
2017-10-02T09:55:28.103Z,725
2017-10-02T09:56:38.607Z,725
2017-10-02T09:57:48.886Z,735
2017-10-02T09:58:59.149Z,740
2017-10-02T10:00:09.409Z,720
2017-10-02T10:01:19.671Z,710
2017-10-02T10:02:29.860Z,690
2017-10-02T10:03:40.111Z,680
2017-10-02T10:04:50.054Z,660
2017-10-02T10:06:00.322Z,650
2017-10-02T10:07:10.576Z,660
2017-10-02T10:08:21.088Z,685
2017-10-02T10:09:30.699Z,715
2017-10-02T10:10:40.645Z,715
2017-10-02T10:11:50.916Z,725
2017-10-02T10:13:00.538Z,720
2017-10-02T10:14:11.056Z,705
2017-10-02T10:15:21.315Z,690
2017-10-02T10:16:31.581Z,670
2017-10-02T10:17:41.834Z,650
2017-10-02T10:18:51.772Z,635
2017-10-02T10:20:02.270Z,620
2017-10-02T10:21:12.523Z,600
2017-10-02T10:22:22.140Z,575
2017-10-02T10:23:32.395Z,555
2017-10-02T10:24:42.667Z,535
2017-10-02T10:25:52.864Z,520
2017-10-02T10:27:02.813Z,515
2017-10-02T10:28:13.067Z,530
2017-10-02T10:29:23.312Z,545
2017-10-02T10:30:33.255Z,550
2017-10-02T10:31:43.460Z,550
2017-10-02T10:32:53.704Z,545
2017-10-02T10:34:03.945Z,540
2017-10-02T10:35:14.206Z,525
2017-10-02T10:36:23.845Z,515
2017-10-02T10:37:34.366Z,510
2017-10-02T10:38:44.654Z,500
2017-10-02T10:39:54.589Z,500
2017-10-02T10:41:04.845Z,495
2017-10-02T10:42:15.099Z,490
2017-10-02T10:43:24.967Z,490
2017-10-02T10:44:35.228Z,470
2017-10-02T10:45:45.481Z,455
2017-10-02T10:46:55.795Z,450
2017-10-02T10:48:05.433Z,440
2017-10-02T10:49:15.960Z,420
2017-10-02T10:50:26.213Z,390
2017-10-02T10:51:36.476Z,370
2017-10-02T10:52:47.127Z,360
2017-10-02T10:53:57.385Z,350
2017-10-02T10:55:07.897Z,345
2017-10-02T10:56:18.167Z,340
2017-10-02T10:57:28.421Z,335
2017-10-02T10:58:38.052Z,330
2017-10-02T10:59:48.308Z,325
2017-10-02T11:00:58.807Z,335
2017-10-02T11:02:08.744Z,320
2017-10-02T11:03:18.689Z,315
2017-10-02T11:04:28.949Z,285
2017-10-02T11:05:38.893Z,265
2017-10-02T11:06:49.393Z,255
2017-10-02T11:07:59.646Z,250
2017-10-02T11:09:09.915Z,235
2017-10-02T11:10:20.181Z,235
2017-10-02T11:11:30.117Z,255
2017-10-02T11:12:40.629Z,260
2017-10-02T11:13:50.579Z,260
2017-10-02T11:15:00.535Z,250
2017-10-02T11:16:10.783Z,230
2017-10-02T11:17:21.045Z,220
2017-10-02T11:18:31.556Z,200
2017-10-02T11:19:41.802Z,190
2017-10-02T11:20:51.743Z,185
2017-10-02T11:22:01.691Z,180
2017-10-02T11:23:11.630Z,170
2017-10-02T11:24:21.823Z,165
2017-10-02T11:25:32.075Z,170
2017-10-02T11:26:42.329Z,175
2017-10-02T11:27:52.585Z,170
2017-10-02T11:29:02.542Z,170
2017-10-02T11:30:13.050Z,185
2017-10-02T11:31:22.996Z,205
2017-10-02T11:32:33.251Z,200
2017-10-02T11:33:43.496Z,205
2017-10-02T11:34:53.746Z,210
2017-10-02T11:36:03.936Z,210
2017-10-02T11:37:14.178Z,210
2017-10-02T11:38:24.128Z,210
2017-10-02T11:39:33.754Z,210
2017-10-02T11:40:44.054Z,210
2017-10-02T11:41:54.549Z,205
2017-10-02T11:43:04.797Z,205
2017-10-02T11:44:15.075Z,205
2017-10-02T11:45:25.335Z,195
2017-10-02T11:46:35.589Z,190
2017-10-02T11:47:45.781Z,180
2017-10-02T11:48:55.734Z,175
2017-10-02T11:50:05.672Z,165
2017-10-02T11:51:15.940Z,165
2017-10-02T11:52:25.874Z,155
2017-10-02T11:53:36.384Z,150
2017-10-02T11:54:46.639Z,150
2017-10-02T11:55:56.584Z,145
2017-10-02T11:57:06.842Z,150
2017-10-02T11:58:17.088Z,150
2017-10-02T11:59:27.279Z,150
2017-10-02T12:00:37.538Z,145
2017-10-02T12:01:47.795Z,135
2017-10-02T12:02:57.419Z,130
2017-10-02T12:04:07.661Z,125
2017-10-02T12:05:17.891Z,135
2017-10-02T12:06:27.823Z,145
2017-10-02T12:07:37.757Z,145
2017-10-02T12:08:47.688Z,130
2017-10-02T12:09:57.931Z,135
2017-10-02T12:11:08.140Z,120
2017-10-02T12:12:18.073Z,120
2017-10-02T12:13:28.011Z,125
2017-10-02T12:14:38.269Z,120
2017-10-02T12:15:48.211Z,120
2017-10-02T12:16:58.719Z,125
2017-10-02T12:18:08.973Z,140
2017-10-02T12:19:18.598Z,140
2017-10-02T12:20:28.843Z,135
2017-10-02T12:21:38.471Z,120
2017-10-02T12:22:48.665Z,115
2017-10-02T12:23:58.300Z,115
2017-10-02T12:25:08.559Z,115
2017-10-02T12:26:19.052Z,115
2017-10-02T12:27:28.982Z,125
2017-10-02T12:28:39.182Z,130
2017-10-02T12:29:49.451Z,140
2017-10-02T12:30:59.712Z,135
2017-10-02T12:32:09.984Z,145
2017-10-02T12:33:20.227Z,145
2017-10-02T12:34:30.432Z,140
2017-10-02T12:35:40.375Z,150
2017-10-02T12:36:50.636Z,155
2017-10-02T12:38:00.902Z,160
2017-10-02T12:39:10.850Z,170
2017-10-02T12:40:21.347Z,175
2017-10-02T12:41:31.283Z,185
2017-10-02T12:42:41.552Z,185
2017-10-02T12:43:51.798Z,210
2017-10-02T12:45:01.728Z,195
2017-10-02T12:46:12.225Z,205
2017-10-02T12:47:22.463Z,200
2017-10-02T12:48:32.702Z,180
2017-10-02T12:49:42.954Z,175
2017-10-02T12:50:53.225Z,160
2017-10-02T12:52:03.724Z,165
2017-10-02T12:53:13.971Z,150
2017-10-02T12:54:24.247Z,150
2017-10-02T12:55:34.506Z,150
2017-10-02T12:56:44.446Z,165
2017-10-02T12:57:54.986Z,160
2017-10-02T12:59:04.932Z,145
2017-10-02T13:00:14.548Z,145
2017-10-02T13:01:24.477Z,150
2017-10-02T13:02:34.718Z,155
2017-10-02T13:03:45.217Z,150
2017-10-02T13:04:55.152Z,150
2017-10-02T13:06:05.438Z,155
2017-10-02T13:07:15.388Z,170
2017-10-02T13:08:25.657Z,165
2017-10-02T13:09:35.844Z,175
2017-10-02T13:10:45.795Z,175
2017-10-02T13:11:56.066Z,175
2017-10-02T13:13:06.317Z,175
2017-10-02T13:14:16.277Z,165
2017-10-02T13:15:26.848Z,165
2017-10-02T13:16:37.111Z,170
2017-10-02T13:17:47.053Z,165
2017-10-02T13:18:57.312Z,165
2017-10-02T13:20:07.579Z,180
2017-10-02T13:21:17.767Z,190
2017-10-02T13:22:27.722Z,205
2017-10-02T13:23:37.979Z,195
2017-10-02T13:24:47.910Z,190
2017-10-02T13:25:57.858Z,180
2017-10-02T13:27:08.045Z,170
2017-10-02T13:28:18.292Z,140
2017-10-02T13:29:28.563Z,105
2017-10-02T13:30:38.815Z,125
2017-10-02T13:31:49.075Z,115
2017-10-02T13:32:59.261Z,95
2017-10-02T13:34:09.508Z,85
2017-10-02T13:35:19.444Z,95
2017-10-02T13:36:29.409Z,105
2017-10-02T13:37:39.653Z,90
2017-10-02T13:38:50.159Z,85
2017-10-02T13:40:00.101Z,90
2017-10-02T13:41:09.734Z,90
2017-10-02T13:42:19.991Z,85
2017-10-02T13:43:30.246Z,105
2017-10-02T13:44:40.449Z,105
2017-10-02T13:45:50.698Z,90
2017-10-02T13:47:00.954Z,90
2017-10-02T13:48:11.200Z,85
2017-10-02T13:49:21.130Z,80
2017-10-02T13:50:30.995Z,85
2017-10-02T13:51:40.945Z,80
2017-10-02T13:52:50.888Z,90
2017-10-02T13:54:00.854Z,90
2017-10-02T13:55:11.110Z,105
2017-10-02T13:56:21.628Z,105
2017-10-02T13:57:31.563Z,110
2017-10-02T13:58:41.807Z,110
2017-10-02T13:59:52.063Z,115
2017-10-02T14:01:02.320Z,110
2017-10-02T14:02:11.890Z,105
2017-10-02T14:03:22.152Z,80
2017-10-02T14:04:32.083Z,70
2017-10-02T14:05:42.030Z,60
2017-10-02T14:06:51.960Z,75
2017-10-02T14:08:02.487Z,75
2017-10-02T14:09:12.783Z,85
2017-10-02T14:10:23.045Z,85
2017-10-02T14:11:33.305Z,85
2017-10-02T14:12:43.231Z,80
2017-10-02T14:13:53.108Z,80
2017-10-02T14:15:03.370Z,110
2017-10-02T14:16:13.619Z,100
2017-10-02T14:17:23.871Z,75
2017-10-02T14:18:33.808Z,90
2017-10-02T14:19:44.336Z,100
2017-10-02T14:20:54.583Z,110
2017-10-02T14:22:04.842Z,90
2017-10-02T14:23:14.789Z,80
2017-10-02T14:24:25.031Z,70
2017-10-02T14:25:35.527Z,80
2017-10-02T14:26:45.774Z,70
2017-10-02T14:27:56.025Z,75
2017-10-02T14:29:06.269Z,75
2017-10-02T14:30:16.515Z,80
2017-10-02T14:31:27.020Z,70
2017-10-02T14:32:37.286Z,75
2017-10-02T14:33:47.546Z,70
2017-10-02T14:34:57.803Z,75
2017-10-02T14:36:07.744Z,85
2017-10-02T14:37:18.255Z,75
2017-10-02T14:38:28.505Z,85
2017-10-02T14:39:38.446Z,75
2017-10-02T14:40:48.414Z,60
2017-10-02T14:41:58.690Z,60
2017-10-02T14:43:08.881Z,45
2017-10-02T14:44:19.130Z,40
2017-10-02T14:45:29.397Z,35
2017-10-02T14:46:39.655Z,40
2017-10-02T14:47:49.910Z,55
2017-10-02T14:49:00.418Z,65
2017-10-02T14:50:10.702Z,60
2017-10-02T14:51:20.644Z,60
2017-10-02T14:52:30.890Z,65
2017-10-02T14:53:41.153Z,60
2017-10-02T14:54:51.667Z,55
2017-10-02T14:56:01.606Z,60
2017-10-02T14:57:11.548Z,60
2017-10-02T14:58:21.795Z,55
2017-10-02T14:59:32.048Z,55
2017-10-02T15:00:42.232Z,65
2017-10-02T15:01:52.168Z,80
2017-10-02T15:03:02.125Z,90
2017-10-02T15:04:12.051Z,95
2017-10-02T15:05:21.998Z,75
2017-10-02T15:06:32.510Z,60
2017-10-02T15:07:42.772Z,55
2017-10-02T15:08:52.715Z,60
2017-10-02T15:10:02.673Z,55
2017-10-02T15:11:12.604Z,55
2017-10-02T15:12:23.098Z,55
2017-10-02T15:13:33.033Z,50
2017-10-02T15:14:42.644Z,45
2017-10-02T15:15:52.599Z,45
2017-10-02T15:17:02.535Z,40
2017-10-02T15:18:12.410Z,40
2017-10-02T15:19:22.664Z,45
2017-10-02T15:20:32.919Z,35
2017-10-02T15:21:42.862Z,30
2017-10-02T15:22:53.134Z,30
2017-10-02T15:24:03.339Z,25
2017-10-02T15:25:13.602Z,20
2017-10-02T15:26:23.534Z,15
2017-10-02T15:27:33.789Z,15
2017-10-02T15:28:44.041Z,15
2017-10-02T15:29:54.238Z,15
2017-10-02T15:31:04.497Z,15
2017-10-02T15:32:14.756Z,15
2017-10-02T15:33:24.700Z,20
2017-10-02T15:34:34.952Z,20
2017-10-02T15:35:45.462Z,20
2017-10-02T15:36:55.418Z,25
2017-10-02T15:38:05.665Z,20
2017-10-02T15:39:15.283Z,20
2017-10-02T15:40:25.546Z,20
2017-10-02T15:41:35.110Z,20
2017-10-02T15:42:44.737Z,15
2017-10-02T15:43:54.984Z,15
2017-10-02T15:45:04.933Z,15
2017-10-02T15:46:14.560Z,20
2017-10-02T15:47:25.112Z,20
2017-10-02T15:48:35.359Z,25
2017-10-02T15:49:45.622Z,25
2017-10-02T15:50:55.874Z,20
2017-10-02T15:52:05.809Z,15
2017-10-02T15:53:16.308Z,15
2017-10-02T15:54:26.253Z,15
2017-10-02T15:55:36.203Z,15
2017-10-02T15:56:46.448Z,20
2017-10-02T15:57:56.383Z,20
2017-10-02T15:59:06.888Z,25
2017-10-02T16:00:17.152Z,20
2017-10-02T16:01:27.399Z,15
2017-10-02T16:02:37.349Z,15
2017-10-02T16:03:47.598Z,20
2017-10-02T16:04:58.098Z,20
2017-10-02T16:06:08.024Z,20
2017-10-02T16:07:17.644Z,20
2017-10-02T16:08:27.887Z,15
2017-10-02T16:09:38.155Z,15
2017-10-02T16:10:48.672Z,15
2017-10-02T16:11:58.617Z,15
2017-10-02T16:13:08.878Z,15
2017-10-02T16:14:18.820Z,20
2017-10-02T16:15:29.088Z,20
2017-10-02T16:16:39.576Z,15
2017-10-02T16:17:49.739Z,20
2017-10-02T16:18:59.668Z,15
2017-10-02T16:20:09.603Z,15
2017-10-02T16:21:19.544Z,10
2017-10-02T16:22:30.087Z,10
2017-10-02T16:23:40.336Z,10
2017-10-02T16:24:50.300Z,10
2017-10-02T16:26:00.261Z,10
2017-10-02T16:27:10.205Z,5
2017-10-02T16:28:20.716Z,5
2017-10-02T16:29:30.659Z,5
2017-10-02T16:30:40.906Z,5
2017-10-02T16:31:50.878Z,0
2017-10-02T16:33:01.177Z,5
2017-10-02T16:34:11.691Z,5